Time;durP1;ratioP1;P1;durP2;ratioP2;P2;SDS_P1;SDS_P2;PMS_P1;PMS_P2;Temp;Humidity;BMP_temperature;BMP_pressure;BME280_temperature;BME280_humidity;BME280_pressure;Samples;Min_cycle;Max_cycle;Signal;HPM_P1;HPM_P2
2022/07/08 00:00:46;;;;;;;8.60;1.35;;;;;;;25.29;35.24;103175.41;5086122;28;20028;-71
2022/07/08 00:03:11;;;;;;;5.68;1.70;;;;;;;25.81;34.23;103178.00;5089793;28;20020;-73
2022/07/08 00:05:37;;;;;;;6.75;1.23;;;;;;;26.19;33.85;103172.16;5091968;28;20062;-71
2022/07/08 00:08:02;;;;;;;4.20;1.20;;;;;;;25.72;34.46;103167.66;5091644;28;20020;-71
2022/07/08 00:10:28;;;;;;;4.55;1.42;;;;;;;26.15;33.84;103176.75;5080839;28;20471;-71
2022/07/08 00:12:53;;;;;;;4.78;1.52;;;;;;;25.32;34.54;103179.78;5089000;28;20455;-71
2022/07/08 00:15:21;;;;;;;6.97;1.55;;;;;;;25.09;35.87;103178.81;5093018;28;20032;-71
2022/07/08 00:17:46;;;;;;;6.32;1.20;;;;;;;24.85;36.49;103186.75;5092147;28;20480;-71
2022/07/08 00:20:12;;;;;;;10.82;2.05;;;;;;;25.06;35.87;103184.28;5093062;28;20028;-71
2022/07/08 00:22:37;;;;;;;7.60;2.10;;;;;;;25.10;35.97;103183.25;5084413;28;20074;-71
2022/07/08 00:25:03;;;;;;;6.03;1.40;;;;;;;25.00;36.65;103174.63;5074146;28;20519;-71
2022/07/08 00:27:28;;;;;;;9.73;1.30;;;;;;;25.08;35.92;103177.06;5081938;28;20062;-71
2022/07/08 00:29:54;;;;;;;8.65;1.38;;;;;;;24.84;36.34;103179.66;5092092;28;20032;-70
2022/07/08 00:32:19;;;;;;;5.63;1.60;;;;;;;24.76;37.22;103184.38;5074762;28;20036;-71
2022/07/08 00:34:44;;;;;;;7.63;1.60;;;;;;;25.35;35.58;103179.72;5084745;28;20119;-71
2022/07/08 00:37:10;;;;;;;5.68;1.60;;;;;;;24.85;36.59;103181.41;5081358;28;20105;-71
2022/07/08 00:39:35;;;;;;;6.40;1.30;;;;;;;24.88;36.74;103175.94;5072206;28;20028;-71
2022/07/08 00:42:01;;;;;;;7.22;1.30;;;;;;;24.95;36.67;103171.25;5084103;28;20032;-71
2022/07/08 00:44:26;;;;;;;4.63;1.50;;;;;;;24.79;36.46;103189.63;5057817;28;20473;-71
2022/07/08 00:46:52;;;;;;;8.30;1.85;;;;;;;25.05;36.08;103179.84;5041260;28;20112;-71
2022/07/08 00:49:18;;;;;;;9.65;1.50;;;;;;;25.28;35.40;103178.16;5051043;28;20488;-71
2022/07/08 00:51:46;;;;;;;5.43;1.35;;;;;;;24.64;36.57;103182.97;5049191;28;20087;-71
2022/07/08 00:54:15;;;;;;;7.60;1.75;;;;;;;25.03;36.42;103179.00;5063093;28;20052;-71
2022/07/08 00:56:41;;;;;;;8.15;1.40;;;;;;;24.86;36.17;103187.63;5071746;28;20059;-70
2022/07/08 00:59:08;;;;;;;3.70;1.27;;;;;;;24.89;36.24;103188.41;5072474;28;20056;-71
2022/07/08 01:01:34;;;;;;;6.35;1.25;;;;;;;24.55;37.67;103184.13;5069942;28;20028;-71
2022/07/08 01:03:59;;;;;;;7.90;1.38;;;;;;;25.15;36.35;103183.06;5071939;28;20039;-71
2022/07/08 01:06:24;;;;;;;5.78;1.58;;;;;;;25.13;36.19;103180.44;5047205;28;20032;-71
2022/07/08 01:08:50;;;;;;;8.95;1.65;;;;;;;25.27;36.20;103181.78;5051240;28;20028;-70
2022/07/08 01:11:16;;;;;;;11.93;2.35;;;;;;;25.10;36.43;103175.22;5051687;28;20033;-70
2022/07/08 01:13:43;;;;;;;8.13;1.58;;;;;;;24.76;37.22;103180.81;5070382;28;20024;-70
2022/07/08 01:16:08;;;;;;;5.32;1.30;;;;;;;25.31;36.08;103176.25;5039242;28;20029;-71
2022/07/08 01:18:34;;;;;;;3.38;1.48;;;;;;;25.31;35.85;103178.91;5053491;28;20169;-71
2022/07/08 01:20:59;;;;;;;4.63;1.20;;;;;;;25.28;35.65;103183.50;5036210;28;20484;-71
2022/07/08 01:23:25;;;;;;;5.78;1.67;;;;;;;24.74;37.16;103186.22;5036160;28;20029;-71
2022/07/08 01:25:51;;;;;;;10.32;1.50;;;;;;;24.92;36.30;103181.19;5045011;28;20055;-70
2022/07/08 01:28:17;;;;;;;5.38;1.60;;;;;;;24.91;36.71;103174.97;5050642;28;20025;-70
2022/07/08 01:30:43;;;;;;;10.68;1.50;;;;;;;24.79;36.75;103181.59;5034660;28;20503;-70
2022/07/08 01:33:09;;;;;;;8.13;1.55;;;;;;;24.87;36.67;103179.53;5066536;28;20074;-71
2022/07/08 01:35:35;;;;;;;6.38;2.13;;;;;;;24.87;36.63;103178.66;5036971;28;20060;-71
2022/07/08 01:38:00;;;;;;;7.10;1.50;;;;;;;24.41;37.08;103172.97;5034564;28;20488;-71
2022/07/08 01:40:25;;;;;;;5.38;1.48;;;;;;;24.46;37.67;103178.19;5033759;28;20374;-71
2022/07/08 01:42:51;;;;;;;11.80;1.92;;;;;;;24.49;37.65;103178.97;5044065;28;20129;-70
2022/07/08 01:45:16;;;;;;;9.23;1.33;;;;;;;25.06;36.34;103178.91;5085327;28;20115;-71
2022/07/08 01:47:42;;;;;;;4.95;1.60;;;;;;;25.22;35.98;103174.78;5086012;28;20396;-70
2022/07/08 01:50:08;;;;;;;11.35;1.15;;;;;;;24.20;38.45;103182.56;5088420;28;20089;-71
2022/07/08 01:52:33;;;;;;;5.95;1.67;;;;;;;24.45;37.47;103179.13;5084962;28;20032;-70
2022/07/08 01:54:59;;;;;;;7.25;1.60;;;;;;;23.73;39.17;103177.69;5074317;28;20032;-70
2022/07/08 01:57:25;;;;;;;4.72;1.13;;;;;;;24.21;38.53;103173.63;5089109;28;20514;-71
2022/07/08 01:59:50;;;;;;;6.68;1.65;;;;;;;24.04;38.60;103176.78;5083153;28;20028;-71
2022/07/08 02:02:18;;;;;;;9.70;1.60;;;;;;;24.10;38.07;103178.41;5071529;28;20036;-71
2022/07/08 02:04:44;;;;;;;4.75;1.98;;;;;;;23.99;39.10;103173.41;5089591;28;20035;-70
2022/07/08 02:07:10;;;;;;;5.20;1.40;;;;;;;24.40;38.47;103165.91;5091085;28;20372;-70
2022/07/08 02:09:37;;;;;;;5.30;2.47;;;;;;;24.19;38.44;103171.00;5090833;28;20091;-71
2022/07/08 02:12:19;;;;;;;7.63;1.40;;;;;;;23.93;39.35;103165.56;5072020;28;20025;-71
2022/07/08 02:14:49;;;;;;;6.50;1.13;;;;;;;24.05;39.45;103162.53;5076200;28;20020;-71
2022/07/08 02:17:16;;;;;;;4.57;1.45;;;;;;;24.02;39.14;103173.31;5089177;28;20032;-71
2022/07/08 02:19:42;;;;;;;7.82;2.00;;;;;;;24.81;36.90;103184.22;5089833;28;20502;-71
2022/07/08 02:22:08;;;;;;;6.05;1.40;;;;;;;24.29;38.69;103181.38;5074611;28;20029;-70
2022/07/08 02:24:34;;;;;;;3.80;1.40;;;;;;;24.11;38.94;103177.47;5083492;28;20165;-70
2022/07/08 02:26:59;;;;;;;6.03;1.20;;;;;;;23.96;39.50;103182.38;5084541;28;20024;-71
2022/07/08 02:29:25;;;;;;;5.57;1.40;;;;;;;24.27;38.59;103177.91;5089805;28;20027;-71
2022/07/08 02:31:50;;;;;;;5.97;1.95;;;;;;;23.89;39.56;103172.78;5073801;28;20108;-70
2022/07/08 02:34:15;;;;;;;6.40;1.48;;;;;;;24.30;38.81;103167.09;5072247;28;20024;-70
2022/07/08 02:36:41;;;;;;;7.72;1.50;;;;;;;24.16;38.46;103171.06;5087325;28;20074;-70
2022/07/08 02:39:06;;;;;;;10.50;1.58;;;;;;;24.19;38.52;103164.78;5088847;28;20097;-71
2022/07/08 02:41:32;;;;;;;6.13;1.65;;;;;;;24.43;38.30;103172.94;5089201;28;20057;-71
2022/07/08 02:43:57;;;;;;;9.40;1.60;;;;;;;24.83;37.11;103169.88;5089537;28;20068;-70
2022/07/08 02:46:23;;;;;;;5.10;1.30;;;;;;;24.46;38.49;103173.72;5087069;28;20536;-71
2022/07/08 02:48:48;;;;;;;9.25;1.63;;;;;;;24.35;38.65;103166.03;5090390;28;20147;-71
2022/07/08 02:51:13;;;;;;;5.90;1.42;;;;;;;23.83;39.73;103167.59;5070468;28;20476;-70
2022/07/08 02:53:39;;;;;;;5.15;1.65;;;;;;;23.58;40.06;103162.09;5069465;28;20063;-71
2022/07/08 02:56:05;;;;;;;7.35;1.73;;;;;;;23.93;39.29;103165.56;5072222;28;20082;-70
2022/07/08 02:58:30;;;;;;;5.97;1.30;;;;;;;23.53;40.58;103155.09;5069776;28;20373;-70
2022/07/08 03:00:55;;;;;;;4.53;1.42;;;;;;;24.22;38.65;103154.88;5078533;28;20055;-70
2022/07/08 03:03:21;;;;;;;6.63;1.50;;;;;;;24.20;38.60;103162.03;5090170;28;20019;-71
2022/07/08 03:05:46;;;;;;;9.90;1.40;;;;;;;24.64;37.42;103158.91;5087953;28;20086;-70
2022/07/08 03:08:11;;;;;;;8.43;1.52;;;;;;;24.13;39.04;103160.50;5069549;28;20074;-70
2022/07/08 03:10:37;;;;;;;8.80;1.60;;;;;;;23.94;39.44;103159.31;5071013;28;20031;-70
2022/07/08 03:13:02;;;;;;;4.45;1.60;;;;;;;23.95;39.46;103156.59;5068050;28;20029;-70
2022/07/08 03:15:27;;;;;;;4.35;1.45;;;;;;;23.59;39.87;103155.81;5073828;28;20024;-70
2022/07/08 03:17:53;;;;;;;7.45;1.70;;;;;;;23.95;39.82;103156.59;5083464;28;20024;-71
2022/07/08 03:20:19;;;;;;;10.65;1.73;;;;;;;24.54;37.93;103154.78;5082920;28;20107;-71
2022/07/08 03:22:45;;;;;;;9.23;1.75;;;;;;;24.08;38.96;103161.56;5069934;28;20144;-71
2022/07/08 03:25:10;;;;;;;13.40;2.20;;;;;;;23.61;40.30;103151.34;5080300;28;20034;-71
2022/07/08 03:27:35;;;;;;;7.25;2.15;;;;;;;23.47;40.53;103165.94;5073864;28;20032;-71
2022/07/08 03:30:01;;;;;;;8.52;1.48;;;;;;;23.92;39.61;103161.13;5076090;28;20466;-71
2022/07/08 03:32:28;;;;;;;12.38;1.85;;;;;;;23.97;39.27;103156.53;5081575;28;20063;-71
2022/07/08 03:34:53;;;;;;;7.63;1.60;;;;;;;24.17;38.76;103156.81;5084361;28;20039;-71
2022/07/08 03:37:18;;;;;;;5.05;1.20;;;;;;;24.39;37.90;103161.47;5082063;28;20020;-71
2022/07/08 03:39:44;;;;;;;9.30;1.60;;;;;;;24.07;38.70;103163.38;5091881;28;20403;-71
2022/07/08 03:42:09;;;;;;;9.05;1.92;;;;;;;24.10;39.13;103163.25;5092794;28;20035;-71
2022/07/08 03:44:34;;;;;;;12.85;1.98;;;;;;;24.01;38.96;103168.88;5056884;28;20025;-71
2022/07/08 03:47:00;;;;;;;5.25;1.70;;;;;;;23.80;39.53;103173.03;5048388;28;20021;-71
2022/07/08 03:49:25;;;;;;;7.93;2.17;;;;;;;23.70;39.91;103173.31;5047873;28;20048;-71
2022/07/08 03:51:50;;;;;;;5.93;1.58;;;;;;;23.36;40.77;103163.56;5054897;28;20029;-71
2022/07/08 03:54:16;;;;;;;4.45;1.25;;;;;;;23.72;40.25;103175.91;5053935;28;20082;-71
2022/07/08 03:56:41;;;;;;;7.30;1.65;;;;;;;23.57;40.39;103177.22;5044677;28;20112;-72
2022/07/08 03:59:07;;;;;;;6.05;1.80;;;;;;;23.30;40.98;103173.53;5039191;28;20020;-71
2022/07/08 04:01:33;;;;;;;8.10;1.50;;;;;;;23.46;40.70;103171.31;5073835;28;20059;-71
2022/07/08 04:03:58;;;;;;;9.00;2.35;;;;;;;23.55;40.53;103163.94;5056461;28;20127;-71
2022/07/08 04:06:23;;;;;;;6.43;1.33;;;;;;;24.27;38.87;103167.22;5069595;28;20024;-71
2022/07/08 04:08:49;;;;;;;4.60;1.40;;;;;;;24.53;38.13;103169.06;5072351;28;20028;-71
2022/07/08 04:11:14;;;;;;;6.40;2.10;;;;;;;24.01;39.56;103163.53;5055573;28;20034;-71
2022/07/08 04:13:40;;;;;;;10.23;2.00;;;;;;;23.38;41.00;103160.84;5056269;28;20052;-72
2022/07/08 04:16:08;;;;;;;10.50;1.60;;;;;;;23.88;40.04;103161.25;5052942;28;20102;-71
2022/07/08 04:18:33;;;;;;;4.38;1.83;;;;;;;23.92;40.00;103166.47;5072720;28;20811;-71
2022/07/08 04:20:59;;;;;;;5.95;1.98;;;;;;;23.96;39.83;103165.47;5054062;28;20028;-71
2022/07/08 04:23:24;;;;;;;7.47;1.80;;;;;;;23.92;40.09;103171.81;5054223;28;20028;-72
2022/07/08 04:25:49;;;;;;;6.78;1.83;;;;;;;24.19;39.44;103171.00;5073157;28;20489;-71
2022/07/08 04:28:15;;;;;;;7.60;2.03;;;;;;;24.29;39.09;103181.38;5046856;28;20029;-72
2022/07/08 04:30:41;;;;;;;7.43;3.05;;;;;;;23.83;40.46;103173.81;5041021;28;20146;-71
2022/07/08 04:33:08;;;;;;;5.57;1.92;;;;;;;24.22;39.40;103170.91;5048068;28;20119;-71
2022/07/08 04:35:33;;;;;;;5.60;1.60;;;;;;;24.06;39.97;103172.28;5050510;28;20016;-72
2022/07/08 04:37:59;;;;;;;9.38;2.22;;;;;;;24.12;39.90;103180.09;5069400;28;20040;-71
2022/07/08 04:40:24;;;;;;;6.25;1.85;;;;;;;22.95;42.44;103188.63;5050190;28;20496;-72
2022/07/08 04:42:49;;;;;;;6.22;1.33;;;;;;;23.62;41.46;103180.66;5051131;28;20491;-71
2022/07/08 04:45:15;;;;;;;10.25;2.03;;;;;;;23.82;40.54;103188.09;5075427;28;20752;-71
2022/07/08 04:47:40;;;;;;;7.22;2.47;;;;;;;24.47;39.67;103196.84;5086105;28;20483;-71
2022/07/08 04:50:06;;;;;;;4.95;1.77;;;;;;;24.85;39.26;103202.78;5072867;28;20060;-71
2022/07/08 04:52:31;;;;;;;11.95;1.80;;;;;;;25.72;37.52;103192.63;5070533;28;20017;-71
2022/07/08 04:54:56;;;;;;;6.63;1.52;;;;;;;25.86;37.44;103197.47;5071969;28;20066;-72
2022/07/08 04:57:22;;;;;;;6.53;1.40;;;;;;;26.40;36.60;103210.63;5083776;28;20027;-72
2022/07/08 04:59:47;;;;;;;7.38;1.60;;;;;;;26.48;36.12;103211.19;5083495;28;20432;-72
2022/07/08 05:02:12;;;;;;;5.75;1.15;;;;;;;27.56;33.88;103209.34;5088767;28;20426;-71
2022/07/08 05:04:38;;;;;;;8.70;1.50;;;;;;;27.68;33.54;103215.09;5076890;28;20099;-71
2022/07/08 05:07:03;;;;;;;3.80;1.42;;;;;;;27.53;33.74;103206.81;5074900;28;20013;-72
2022/07/08 05:09:28;;;;;;;6.28;1.63;;;;;;;27.93;33.78;103210.34;5073567;28;20392;-71
2022/07/08 05:11:54;;;;;;;8.45;1.52;;;;;;;25.91;36.53;103216.94;5091430;28;20042;-72
2022/07/08 05:14:19;;;;;;;4.97;1.13;;;;;;;27.47;34.76;103216.97;5070697;28;20059;-72
2022/07/08 05:16:44;;;;;;;8.73;1.52;;;;;;;26.57;35.85;103234.97;5078500;28;20099;-72
2022/07/08 05:19:10;;;;;;;8.50;1.40;;;;;;;25.46;38.16;103231.06;5078652;28;20028;-70
2022/07/08 05:21:37;;;;;;;7.53;1.42;;;;;;;23.87;41.72;103236.88;5071383;28;20060;-72
2022/07/08 05:24:06;;;;;;;9.80;1.60;;;;;;;25.55;38.93;103229.84;5086042;28;20024;-72
2022/07/08 05:26:32;;;;;;;6.40;1.40;;;;;;;26.22;37.66;103226.50;5090144;28;20044;-71
2022/07/08 05:28:58;;;;;;;6.47;1.52;;;;;;;26.38;37.48;103231.28;5091595;28;20149;-71
2022/07/08 05:31:24;;;;;;;7.25;1.75;;;;;;;25.59;39.04;103226.13;5081798;28;20027;-72
2022/07/08 05:33:49;;;;;;;10.65;1.45;;;;;;;26.34;37.72;103232.31;5074959;28;20032;-71
2022/07/08 05:36:14;;;;;;;8.18;2.05;;;;;;;26.05;38.79;103228.97;5085284;28;20035;-72
2022/07/08 05:38:40;;;;;;;5.88;1.50;;;;;;;24.39;41.47;103238.97;5070990;28;20020;-72
2022/07/08 05:41:05;;;;;;;10.20;1.65;;;;;;;24.86;41.48;103236.63;5085427;28;20034;-71
2022/07/08 05:43:30;;;;;;;12.38;2.42;;;;;;;24.85;41.13;103240.25;5078244;28;20411;-72
2022/07/08 05:45:56;;;;;;;11.18;2.15;;;;;;;25.63;39.96;103238.50;5073057;28;20436;-72
2022/07/08 05:48:22;;;;;;;10.18;1.60;;;;;;;26.24;38.63;103240.72;5089965;28;20065;-72
2022/07/08 05:50:48;;;;;;;5.05;1.27;;;;;;;26.66;37.83;103241.75;5080337;28;20073;-71
2022/07/08 05:53:17;;;;;;;6.47;1.42;;;;;;;25.52;40.04;103236.19;5079587;28;20035;-71
2022/07/08 05:55:45;;;;;;;8.25;1.63;;;;;;;25.35;40.98;103239.47;5071315;28;20021;-72
2022/07/08 05:58:10;;;;;;;6.18;1.70;;;;;;;26.08;39.93;103234.19;5075399;28;20098;-71
2022/07/08 06:00:36;;;;;;;7.70;1.67;;;;;;;24.94;41.19;103239.06;5074493;28;20036;-71
2022/07/08 06:03:04;;;;;;;4.20;1.02;;;;;;;25.94;39.77;103233.81;5074080;28;20034;-71
2022/07/08 06:05:30;;;;;;;9.10;1.90;;;;;;;24.87;41.96;103246.41;5079110;28;20043;-71
2022/07/08 06:07:55;;;;;;;8.05;1.80;;;;;;;25.15;40.90;103256.16;5070128;28;20112;-72
2022/07/08 06:10:21;;;;;;;9.48;1.50;;;;;;;24.86;41.65;103241.97;5070031;28;20039;-72
2022/07/08 06:12:46;;;;;;;8.10;1.30;;;;;;;25.70;39.93;103256.06;5075150;28;20030;-71
2022/07/08 06:15:15;;;;;;;6.45;1.80;;;;;;;25.04;41.06;103258.34;5089343;28;20024;-72
2022/07/08 06:17:41;;;;;;;20.52;1.65;;;;;;;25.54;40.61;103255.75;5086092;28;20032;-71
2022/07/08 06:20:07;;;;;;;11.55;1.60;;;;;;;26.76;38.29;103258.38;5071943;28;20035;-71
2022/07/08 06:22:33;;;;;;;14.85;1.45;;;;;;;27.01;38.49;103262.72;5081580;28;20073;-71
2022/07/08 06:24:59;;;;;;;9.55;1.38;;;;;;;26.71;38.30;103261.25;5074448;28;20043;-72
2022/07/08 06:27:25;;;;;;;8.88;2.20;;;;;;;27.11;37.85;103257.84;5077394;28;20029;-71
2022/07/08 06:29:50;;;;;;;11.65;1.60;;;;;;;28.21;35.68;103257.47;5088787;28;20028;-72
2022/07/08 06:32:15;;;;;;;7.90;1.20;;;;;;;29.20;34.12;103258.03;5073833;28;20027;-72
2022/07/08 06:34:40;;;;;;;11.05;1.20;;;;;;;27.67;36.51;103257.22;5086059;28;20040;-71
2022/07/08 06:37:06;;;;;;;5.47;1.20;;;;;;;28.13;36.27;103264.16;5073673;28;20123;-71
2022/07/08 06:39:31;;;;;;;9.35;1.40;;;;;;;27.74;36.77;103268.56;5071587;28;20029;-72
2022/07/08 06:41:57;;;;;;;7.28;1.60;;;;;;;28.73;35.50;103264.00;5071778;28;20081;-71
2022/07/08 06:44:22;;;;;;;6.32;1.42;;;;;;;27.61;36.11;103262.84;5069491;28;20044;-71
2022/07/08 06:46:48;;;;;;;15.13;1.60;;;;;;;28.78;34.85;103267.31;5074923;28;20024;-72
2022/07/08 06:49:13;;;;;;;3.50;1.50;;;;;;;30.14;33.11;103257.59;5070265;28;20097;-72
2022/07/08 06:51:38;;;;;;;10.27;1.60;;;;;;;30.45;32.27;103264.00;5070934;28;20153;-72
2022/07/08 06:56:48;;;;;;;10.40;2.28;;;;;;;29.87;32.46;103260.88;5078600;28;20055;-72
2022/07/08 06:59:13;;;;;;;8.05;2.05;;;;;;;29.48;33.44;103259.31;5073449;28;20531;-71
2022/07/08 07:01:39;;;;;;;6.32;1.40;;;;;;;30.34;32.92;103266.41;5077039;28;20074;-71
2022/07/08 07:04:04;;;;;;;11.50;1.70;;;;;;;30.43;31.63;103260.47;5069632;28;20078;-71
2022/07/08 07:06:30;;;;;;;9.18;1.70;;;;;;;31.09;31.06;103261.22;5085884;28;20467;-72
2022/07/08 07:08:55;;;;;;;5.47;1.15;;;;;;;32.75;28.79;103257.16;5070842;28;20036;-72
2022/07/08 07:11:21;;;;;;;10.63;1.30;;;;;;;32.56;29.21;103257.47;5089301;28;20032;-71
2022/07/08 07:13:47;;;;;;;8.18;1.38;;;;;;;32.19;29.07;103255.38;5085925;28;20098;-71
2022/07/08 07:16:13;;;;;;;8.85;1.45;;;;;;;32.45;29.17;103250.97;5075869;28;20032;-71
2022/07/08 07:18:39;;;;;;;6.32;1.10;;;;;;;33.11;28.65;103264.63;5072728;28;20028;-71
2022/07/08 07:21:04;;;;;;;1.70;0.80;;;;;;;30.51;31.29;103269.03;5075876;28;20080;-72
2022/07/08 07:23:30;;;;;;;7.40;1.23;;;;;;;33.47;27.90;103262.19;5077069;28;20391;-72
2022/07/08 07:25:56;;;;;;;7.68;1.15;;;;;;;34.54;25.88;103260.84;5079574;28;20399;-71
2022/07/08 07:28:21;;;;;;;8.90;1.40;;;;;;;33.30;27.56;103256.13;5086299;28;20028;-71
2022/07/08 07:30:47;;;;;;;9.55;1.30;;;;;;;33.23;27.73;103252.03;5074099;28;20047;-72
2022/07/08 07:33:12;;;;;;;6.38;1.08;;;;;;;35.02;25.19;103256.34;5074529;28;20503;-72
2022/07/08 07:35:38;;;;;;;8.13;1.25;;;;;;;32.54;28.26;103264.84;5084402;28;20047;-72
2022/07/08 07:38:03;;;;;;;3.95;1.48;;;;;;;34.35;25.53;103261.34;5080011;28;20039;-71
2022/07/08 07:40:28;;;;;;;8.77;1.10;;;;;;;34.07;25.36;103259.75;5072854;28;20562;-72
2022/07/08 07:42:54;;;;;;;7.22;1.20;;;;;;;37.65;22.40;103260.13;5075627;28;20071;-71
2022/07/08 07:45:19;;;;;;;5.97;1.30;;;;;;;36.66;23.45;103264.00;5060272;28;20098;-72
2022/07/08 07:47:44;;;;;;;5.85;1.20;;;;;;;35.76;23.96;103258.72;5051715;28;20552;-71
2022/07/08 07:50:12;;;;;;;5.78;1.10;;;;;;;34.87;24.90;103256.56;5043632;28;20032;-71
2022/07/08 07:52:37;;;;;;;6.75;0.82;;;;;;;34.58;25.41;103261.44;5036101;28;20055;-71
2022/07/08 07:55:05;;;;;;;3.67;0.85;;;;;;;33.21;25.82;103256.72;5042454;28;20053;-72
2022/07/08 07:57:31;;;;;;;3.40;1.00;;;;;;;33.57;26.59;103255.13;5051688;28;20024;-71
2022/07/08 07:59:56;;;;;;;6.53;1.25;;;;;;;31.91;28.25;103253.53;5045990;28;20028;-72
2022/07/08 08:02:21;;;;;;;6.05;1.10;;;;;;;33.12;27.19;103254.63;5049723;28;20538;-72
2022/07/08 08:04:47;;;;;;;6.97;1.38;;;;;;;32.32;27.86;103255.44;5039639;28;20021;-72
2022/07/08 08:07:12;;;;;;;4.15;1.17;;;;;;;31.58;28.08;103244.69;5035591;28;20090;-72
2022/07/08 08:09:37;;;;;;;4.47;1.00;;;;;;;32.79;27.09;103245.16;5057263;28;20499;-72
2022/07/08 08:12:03;;;;;;;9.13;1.65;;;;;;;33.41;27.23;103244.50;5038666;28;20032;-72
2022/07/08 08:14:28;;;;;;;3.83;1.20;;;;;;;33.31;25.91;103249.69;5033101;28;20025;-72
2022/07/08 08:16:54;;;;;;;3.83;0.90;;;;;;;33.47;26.70;103254.91;5055664;28;20114;-72
2022/07/08 08:19:19;;;;;;;7.93;0.90;;;;;;;35.77;25.05;103244.13;5043286;28;20031;-71
2022/07/08 08:21:45;;;;;;;5.00;1.50;;;;;;;37.04;23.39;103245.38;5068090;28;20033;-71
2022/07/08 08:24:10;;;;;;;8.20;1.55;;;;;;;36.39;22.64;103244.56;5053542;28;20044;-72
2022/07/08 08:26:35;;;;;;;6.30;0.85;;;;;;;37.77;22.42;103242.69;5053377;28;20028;-72
2022/07/08 08:29:00;;;;;;;3.75;0.80;;;;;;;34.10;24.71;103241.41;5054569;28;20116;-71
2022/07/08 08:31:26;;;;;;;6.18;1.15;;;;;;;35.48;24.04;103252.78;5038979;28;20716;-72
2022/07/08 08:33:52;;;;;;;4.55;1.38;;;;;;;36.28;22.40;103243.56;5054169;28;20036;-72
2022/07/08 08:36:17;;;;;;;7.43;1.00;;;;;;;39.68;20.76;103250.41;5061258;28;20067;-72
2022/07/08 08:38:43;;;;;;;2.78;0.95;;;;;;;38.12;21.10;103251.38;5055142;28;20526;-72
2022/07/08 08:41:09;;;;;;;4.75;1.13;;;;;;;37.72;20.77;103260.44;5044301;28;20127;-71
2022/07/08 08:43:35;;;;;;;3.28;0.90;;;;;;;38.10;20.56;103254.25;5063376;28;20052;-72
2022/07/08 08:46:01;;;;;;;6.60;1.20;;;;;;;37.54;20.88;103257.47;5055767;28;20029;-71
2022/07/08 08:48:34;;;;;;;2.05;0.70;;;;;;;35.55;21.69;103262.16;5046631;28;20035;-71
2022/07/08 08:51:02;;;;;;;5.63;1.00;;;;;;;38.57;19.71;103256.34;5038548;28;20534;-71
2022/07/08 08:53:40;;;;;;;5.25;1.40;;;;;;;37.52;20.81;103254.88;5038746;28;20028;-72
2022/07/08 08:56:12;;;;;;;5.10;0.93;;;;;;;38.07;20.14;103250.94;5053765;28;20035;-71
2022/07/08 08:58:39;;;;;;;6.00;1.00;;;;;;;38.19;21.10;103247.09;5072546;28;20071;-72
2022/07/08 09:01:07;;;;;;;5.65;0.90;;;;;;;35.02;21.89;103257.19;5053053;28;20301;-71
2022/07/08 09:03:32;;;;;;;5.55;1.23;;;;;;;38.19;21.48;103247.09;5041533;28;20115;-72
2022/07/08 09:05:58;;;;;;;2.22;0.85;;;;;;;37.40;20.63;103253.25;5046960;28;20449;-71
2022/07/08 09:08:23;;;;;;;4.90;1.00;;;;;;;38.30;20.34;103246.97;5054067;28;20074;-71
2022/07/08 09:10:48;;;;;;;3.85;0.82;;;;;;;38.83;18.89;103262.13;5053354;28;20519;-71
2022/07/08 09:13:15;;;;;;;4.45;0.98;;;;;;;35.73;22.37;103253.53;5055602;28;20056;-72
2022/07/08 09:15:48;;;;;;;3.40;1.48;;;;;;;39.22;19.35;103253.00;5071650;28;20035;-71
2022/07/08 09:18:18;;;;;;;2.85;1.17;;;;;;;40.08;19.01;103240.13;5066731;28;20035;-72
2022/07/08 09:20:46;;;;;;;2.97;1.05;;;;;;;38.35;20.03;103247.41;5060844;28;20067;-72
2022/07/08 09:23:12;;;;;;;2.38;0.90;;;;;;;35.98;21.65;103247.84;5040631;28;20028;-72
2022/07/08 09:25:38;;;;;;;4.85;1.27;;;;;;;35.29;23.24;103248.75;5046491;28;20112;-72
2022/07/08 09:28:03;;;;;;;5.72;0.95;;;;;;;36.21;22.77;103242.34;5038113;28;20116;-71
2022/07/08 09:30:32;;;;;;;4.10;0.80;;;;;;;38.95;20.25;103254.63;5052467;28;20397;-71
2022/07/08 09:32:59;;;;;;;3.97;0.90;;;;;;;37.82;20.28;103244.97;5055041;28;20027;-71
2022/07/08 09:35:36;;;;;;;3.42;0.70;;;;;;;39.12;19.54;103255.75;5049858;28;20135;-71
2022/07/08 09:38:09;;;;;;;3.70;1.70;;;;;;;37.91;20.73;103251.47;5034038;28;20025;-71
2022/07/08 09:40:35;;;;;;;4.75;1.00;;;;;;;34.01;25.94;103262.94;5052664;28;20419;-72
2022/07/08 09:43:12;;;;;;;4.10;1.10;;;;;;;36.66;23.06;103258.56;5047590;28;20500;-71
2022/07/08 09:45:38;;;;;;;4.78;1.25;;;;;;;37.79;20.72;103250.72;5073217;28;20044;-71
2022/07/08 09:48:05;;;;;;;4.45;1.73;;;;;;;37.27;20.59;103253.44;5086829;28;20027;-71
2022/07/08 09:50:40;;;;;;;2.95;0.90;;;;;;;37.10;21.10;103260.38;5091608;28;20055;-71
2022/07/08 09:53:11;;;;;;;6.00;1.30;;;;;;;32.14;27.08;103258.34;5090887;28;20383;-72
2022/07/08 09:55:39;;;;;;;4.45;0.85;;;;;;;36.07;23.45;103250.81;5084576;28;20020;-72
2022/07/08 09:58:05;;;;;;;4.70;1.48;;;;;;;35.12;23.10;103254.66;5071326;28;20036;-72
2022/07/08 10:00:31;;;;;;;5.00;1.02;;;;;;;35.21;22.68;103253.91;5077835;28;20464;-71
2022/07/08 10:02:57;;;;;;;2.42;0.95;;;;;;;38.82;20.85;103248.59;5079316;28;20115;-71
2022/07/08 10:05:23;;;;;;;1.65;0.65;;;;;;;38.01;20.49;103255.94;5071804;28;20028;-72
2022/07/08 10:07:48;;;;;;;2.55;0.70;;;;;;;35.96;21.74;103249.81;5068906;28;20419;-71
2022/07/08 10:10:13;;;;;;;3.13;0.73;;;;;;;35.60;21.75;103254.50;5070559;28;20492;-72
2022/07/08 10:12:39;;;;;;;4.80;1.15;;;;;;;35.43;23.59;103257.69;5071601;28;20028;-72
2022/07/08 10:15:06;;;;;;;4.47;0.90;;;;;;;34.93;22.54;103261.50;5076717;28;20033;-71
2022/07/08 10:17:40;;;;;;;5.40;0.95;;;;;;;38.10;20.30;103258.84;5090243;28;20035;-72
2022/07/08 10:20:07;;;;;;;0.60;0.52;;;;;;;39.65;19.09;103257.06;5071017;28;20030;-71
2022/07/08 10:22:34;;;;;;;2.85;1.05;;;;;;;37.11;21.88;103251.19;5070551;28;20059;-71
2022/07/08 10:25:02;;;;;;;2.15;0.90;;;;;;;37.05;20.96;103257.19;5070624;28;20034;-71
2022/07/08 10:27:28;;;;;;;3.65;1.08;;;;;;;39.49;19.89;103252.19;5070145;28;20035;-71
2022/07/08 10:30:12;;;;;;;3.88;0.88;;;;;;;40.70;17.98;103243.84;5080809;28;20025;-71
2022/07/08 10:32:37;;;;;;;5.07;1.00;;;;;;;40.48;18.44;103247.91;5072297;28;20082;-72
2022/07/08 10:35:11;;;;;;;4.97;0.90;;;;;;;40.01;18.78;103248.06;5070870;28;20029;-72
2022/07/08 10:37:57;;;;;;;4.80;0.73;;;;;;;38.69;19.41;103255.22;5076177;28;20099;-72
2022/07/08 10:40:37;;;;;;;3.33;0.80;;;;;;;35.13;22.90;103250.94;5084410;28;20028;-72
2022/07/08 10:43:18;;;;;;;3.45;1.00;;;;;;;35.08;23.74;103255.88;5079551;28;20055;-71
2022/07/08 10:46:02;;;;;;;2.45;0.82;;;;;;;34.42;23.79;103256.31;5073187;28;20081;-73
2022/07/08 10:48:39;;;;;;;2.63;1.10;;;;;;;37.37;21.54;103245.34;5071830;28;20033;-71
2022/07/08 10:51:05;;;;;;;4.72;1.83;;;;;;;37.78;20.97;103238.06;5081690;28;20035;-71
2022/07/08 10:53:48;;;;;;;1.80;0.75;;;;;;;37.57;20.06;103241.69;5070239;28;20111;-71
2022/07/08 10:56:52;;;;;;;2.35;0.50;;;;;;;36.60;19.40;103242.75;5071120;28;20082;-72
2022/07/08 10:59:18;;;;;;;2.17;0.75;;;;;;;36.76;20.18;103244.16;5076265;28;20024;-72
2022/07/08 11:01:50;;;;;;;7.55;0.75;;;;;;;36.66;20.42;103239.50;5087772;28;20024;-71
2022/07/08 11:04:35;;;;;;;2.30;0.68;;;;;;;36.15;20.03;103232.00;5070685;28;20082;-72
2022/07/08 11:07:26;;;;;;;3.00;0.90;;;;;;;37.12;21.27;103236.56;5069877;28;20032;-71
2022/07/08 11:10:08;;;;;;;1.58;0.50;;;;;;;39.18;18.59;103244.22;5078669;28;20027;-72
2022/07/08 11:12:45;;;;;;;4.15;1.30;;;;;;;36.67;20.26;103235.78;5090663;28;20028;-72
2022/07/08 11:15:16;;;;;;;3.15;0.70;;;;;;;34.06;22.37;103239.03;5088854;28;20115;-71
2022/07/08 11:17:42;;;;;;;2.72;0.73;;;;;;;35.07;21.86;103233.28;5081866;28;20493;-72
2022/07/08 11:20:11;;;;;;;6.00;0.82;;;;;;;35.78;21.36;103230.41;5077871;28;20039;-72
2022/07/08 11:22:38;;;;;;;2.75;0.70;;;;;;;35.09;22.11;103238.56;5070440;28;20078;-72
2022/07/08 11:25:05;;;;;;;1.67;0.57;;;;;;;36.88;20.39;103231.38;5069419;28;20021;-72